sensor_id;sensor_type;location;lat;lon;timestamp;P1;durP1;ratioP1;P2;durP2;ratioP2
5006;SDS011;2522;50.972;11.046;2022-10-18T03:30:53;10.20;;;4.50;;
5006;SDS011;2522;50.972;11.046;2022-10-18T03:33:26;5.87;;;3.77;;
5006;SDS011;2522;50.972;11.046;2022-10-18T03:35:53;13.20;;;4.20;;
5006;SDS011;2522;50.972;11.046;2022-10-18T03:38:19;7.03;;;3.70;;
5006;SDS011;2522;50.972;11.046;2022-10-18T03:40:46;6.13;;;4.00;;
5006;SDS011;2522;50.972;11.046;2022-10-18T03:43:13;11.70;;;4.27;;
5006;SDS011;2522;50.972;11.046;2022-10-18T03:45:40;5.90;;;4.10;;
5006;SDS011;2522;50.972;11.046;2022-10-18T03:48:09;8.33;;;3.63;;
5006;SDS011;2522;50.972;11.046;2022-10-18T03:50:36;7.47;;;4.07;;
5006;SDS011;2522;50.972;11.046;2022-10-18T03:53:02;8.40;;;4.43;;
5006;SDS011;2522;50.972;11.046;2022-10-18T03:55:29;7.10;;;4.13;;
5006;SDS011;2522;50.972;11.046;2022-10-18T03:57:56;8.77;;;4.23;;
5006;SDS011;2522;50.972;11.046;2022-10-18T04:00:23;7.70;;;4.53;;
5006;SDS011;2522;50.972;11.046;2022-10-18T04:02:50;9.40;;;4.83;;
5006;SDS011;2522;50.972;11.046;2022-10-18T04:05:19;8.50;;;4.80;;
5006;SDS011;2522;50.972;11.046;2022-10-18T04:07:47;6.20;;;3.53;;
5006;SDS011;2522;50.972;11.046;2022-10-18T04:10:14;9.40;;;5.23;;
5006;SDS011;2522;50.972;11.046;2022-10-18T04:12:42;16.87;;;5.03;;
5006;SDS011;2522;50.972;11.046;2022-10-18T04:15:09;8.43;;;4.63;;
5006;SDS011;2522;50.972;11.046;2022-10-18T04:17:36;9.37;;;5.23;;
5006;SDS011;2522;50.972;11.046;2022-10-18T04:20:03;10.07;;;5.03;;
5006;SDS011;2522;50.972;11.046;2022-10-18T04:22:32;8.10;;;4.60;;
5006;SDS011;2522;50.972;11.046;2022-10-18T04:24:59;9.57;;;4.97;;
5006;SDS011;2522;50.972;11.046;2022-10-18T04:27:26;8.50;;;4.40;;
5006;SDS011;2522;50.972;11.046;2022-10-18T04:29:53;7.87;;;4.07;;
5006;SDS011;2522;50.972;11.046;2022-10-18T04:32:20;8.37;;;4.73;;
5006;SDS011;2522;50.972;11.046;2022-10-18T04:34:47;22.23;;;5.50;;
5006;SDS011;2522;50.972;11.046;2022-10-18T04:37:14;11.97;;;4.90;;
5006;SDS011;2522;50.972;11.046;2022-10-18T04:39:42;9.70;;;4.63;;
5006;SDS011;2522;50.972;11.046;2022-10-18T04:42:12;9.70;;;5.20;;
5006;SDS011;2522;50.972;11.046;2022-10-18T04:44:39;10.10;;;4.83;;
5006;SDS011;2522;50.972;11.046;2022-10-18T04:47:06;10.50;;;4.80;;
5006;SDS011;2522;50.972;11.046;2022-10-18T04:49:33;11.27;;;4.97;;
5006;SDS011;2522;50.972;11.046;2022-10-18T04:52:00;8.00;;;5.20;;
5006;SDS011;2522;50.972;11.046;2022-10-18T04:54:27;9.43;;;4.93;;
5006;SDS011;2522;50.972;11.046;2022-10-18T04:56:55;9.20;;;4.67;;
5006;SDS011;2522;50.972;11.046;2022-10-18T04:59:22;9.60;;;5.23;;
5006;SDS011;2522;50.972;11.046;2022-10-18T05:01:49;10.60;;;5.40;;
5006;SDS011;2522;50.972;11.046;2022-10-18T05:04:16;8.97;;;4.63;;
5006;SDS011;2522;50.972;11.046;2022-10-18T05:06:43;8.90;;;3.93;;
5006;SDS011;2522;50.972;11.046;2022-10-18T05:09:10;7.97;;;4.33;;
5006;SDS011;2522;50.972;11.046;2022-10-18T05:11:37;7.83;;;3.97;;
5006;SDS011;2522;50.972;11.046;2022-10-18T05:14:05;16.57;;;5.30;;
5006;SDS011;2522;50.972;11.046;2022-10-18T05:16:34;10.27;;;5.10;;
5006;SDS011;2522;50.972;11.046;2022-10-18T05:19:02;7.40;;;4.27;;
5006;SDS011;2522;50.972;11.046;2022-10-18T05:21:29;12.20;;;5.87;;
5006;SDS011;2522;50.972;11.046;2022-10-18T05:23:56;11.03;;;6.17;;
5006;SDS011;2522;50.972;11.046;2022-10-18T05:26:23;15.33;;;4.80;;
5006;SDS011;2522;50.972;11.046;2022-10-18T05:28:50;8.77;;;5.00;;
5006;SDS011;2522;50.972;11.046;2022-10-18T05:31:18;14.57;;;5.87;;
5006;SDS011;2522;50.972;11.046;2022-10-18T05:33:45;13.23;;;6.37;;
5006;SDS011;2522;50.972;11.046;2022-10-18T05:36:12;10.50;;;5.67;;
5006;SDS011;2522;50.972;11.046;2022-10-18T05:38:39;11.90;;;5.97;;
5006;SDS011;2522;50.972;11.046;2022-10-18T05:41:07;12.57;;;5.87;;
5006;SDS011;2522;50.972;11.046;2022-10-18T05:43:34;12.93;;;6.77;;
5006;SDS011;2522;50.972;11.046;2022-10-18T05:46:01;13.23;;;7.30;;
5006;SDS011;2522;50.972;11.046;2022-10-18T05:48:30;13.70;;;6.53;;
5006;SDS011;2522;50.972;11.046;2022-10-18T05:50:57;13.77;;;7.00;;
5006;SDS011;2522;50.972;11.046;2022-10-18T05:53:24;15.33;;;8.57;;
5006;SDS011;2522;50.972;11.046;2022-10-18T05:55:52;13.23;;;7.33;;
5006;SDS011;2522;50.972;11.046;2022-10-18T05:58:19;13.27;;;7.27;;
5006;SDS011;2522;50.972;11.046;2022-10-18T06:00:46;14.70;;;7.10;;
5006;SDS011;2522;50.972;11.046;2022-10-18T06:03:13;14.83;;;8.20;;
5006;SDS011;2522;50.972;11.046;2022-10-18T06:05:41;19.10;;;7.93;;
5006;SDS011;2522;50.972;11.046;2022-10-18T06:08:08;14.77;;;7.87;;
5006;SDS011;2522;50.972;11.046;2022-10-18T06:10:37;10.27;;;6.23;;
5006;SDS011;2522;50.972;11.046;2022-10-18T06:13:04;10.17;;;3.83;;
5006;SDS011;2522;50.972;11.046;2022-10-18T06:15:31;7.40;;;2.87;;
5006;SDS011;2522;50.972;11.046;2022-10-18T06:17:57;5.07;;;3.13;;
5006;SDS011;2522;50.972;11.046;2022-10-18T06:20:24;7.50;;;3.67;;
5006;SDS011;2522;50.972;11.046;2022-10-18T06:22:53;9.13;;;3.33;;
5006;SDS011;2522;50.972;11.046;2022-10-18T06:25:20;5.83;;;3.77;;
5006;SDS011;2522;50.972;11.046;2022-10-18T06:27:47;7.20;;;3.80;;
5006;SDS011;2522;50.972;11.046;2022-10-18T06:30:15;7.17;;;3.30;;
5006;SDS011;2522;50.972;11.046;2022-10-18T06:32:42;17.20;;;4.23;;
5006;SDS011;2522;50.972;11.046;2022-10-18T06:35:09;7.90;;;4.10;;
5006;SDS011;2522;50.972;11.046;2022-10-18T06:37:36;9.30;;;4.50;;
5006;SDS011;2522;50.972;11.046;2022-10-18T06:40:05;9.40;;;4.60;;
5006;SDS011;2522;50.972;11.046;2022-10-18T06:42:32;10.90;;;5.60;;
5006;SDS011;2522;50.972;11.046;2022-10-18T06:44:59;8.77;;;5.00;;
5006;SDS011;2522;50.972;11.046;2022-10-18T06:47:27;12.93;;;4.67;;
5006;SDS011;2522;50.972;11.046;2022-10-18T06:49:54;10.90;;;5.67;;
5006;SDS011;2522;50.972;11.046;2022-10-18T06:52:21;6.87;;;3.93;;
5006;SDS011;2522;50.972;11.046;2022-10-18T06:54:49;7.67;;;3.80;;
5006;SDS011;2522;50.972;11.046;2022-10-18T06:57:19;6.20;;;4.10;;
5006;SDS011;2522;50.972;11.046;2022-10-18T06:59:46;9.33;;;4.33;;
5006;SDS011;2522;50.972;11.046;2022-10-18T07:02:16;6.33;;;3.30;;
5006;SDS011;2522;50.972;11.046;2022-10-18T07:04:43;9.10;;;3.70;;
5006;SDS011;2522;50.972;11.046;2022-10-18T07:07:10;7.47;;;3.63;;
5006;SDS011;2522;50.972;11.046;2022-10-18T07:09:37;4.87;;;2.47;;
5006;SDS011;2522;50.972;11.046;2022-10-18T07:12:04;5.57;;;2.63;;
5006;SDS011;2522;50.972;11.046;2022-10-18T07:14:33;4.43;;;2.70;;
5006;SDS011;2522;50.972;11.046;2022-10-18T07:17:00;12.73;;;2.60;;
5006;SDS011;2522;50.972;11.046;2022-10-18T07:19:27;4.23;;;1.93;;
5006;SDS011;2522;50.972;11.046;2022-10-18T07:21:54;9.03;;;2.57;;
5006;SDS011;2522;50.972;11.046;2022-10-18T07:24:21;7.20;;;2.30;;
5006;SDS011;2522;50.972;11.046;2022-10-18T07:26:48;3.57;;;1.90;;
5006;SDS011;2522;50.972;11.046;2022-10-18T07:29:15;3.93;;;2.47;;
